createdAt,value
2019-03-20T00:01:44.726Z,55.62
2019-03-20T00:10:36.102Z,48.03
2019-03-20T00:13:09.996Z,53.16
2019-03-20T00:15:43.970Z,53.58
2019-03-20T00:18:17.642Z,54.20
2019-03-20T00:20:51.394Z,55.05
2019-03-20T00:23:25.266Z,54.97
2019-03-20T00:25:58.949Z,53.73
2019-03-20T00:28:33.194Z,55.07
2019-03-20T00:31:06.819Z,55.04
2019-03-20T00:33:40.445Z,56.54
2019-03-20T00:36:14.337Z,55.73
2019-03-20T00:38:47.904Z,55.03
2019-03-20T00:41:23.089Z,54.16
2019-03-20T00:43:58.568Z,54.65
2019-03-20T00:46:33.923Z,54.16
2019-03-20T00:55:18.737Z,53.69
2019-03-20T00:57:52.550Z,55.24
2019-03-20T01:00:28.265Z,55.24
2019-03-20T01:03:02.100Z,55.42
2019-03-20T01:05:35.880Z,54.77
2019-03-20T01:08:10.108Z,56.94
2019-03-20T01:10:43.883Z,55.67
2019-03-20T01:13:17.426Z,55.67
2019-03-20T01:16:35.572Z,54.73
2019-03-20T01:18:54.580Z,55.49
2019-03-20T01:21:28.461Z,56.03
2019-03-20T01:24:02.067Z,56.03
2019-03-20T01:26:35.707Z,56.51
2019-03-20T01:29:09.520Z,55.83
2019-03-20T01:31:43.302Z,56.52
2019-03-20T01:34:17.100Z,55.61
2019-03-20T01:36:51.293Z,54.72
2019-03-20T01:42:38.279Z,54.70
2019-03-20T01:45:13.747Z,54.15
2019-03-20T01:47:49.439Z,54.83
2019-03-20T01:50:23.255Z,54.62
2019-03-20T01:53:00.991Z,54.76
2019-03-20T01:55:35.227Z,55.36
2019-03-20T01:58:08.736Z,54.97
2019-03-20T02:00:43.528Z,54.68
2019-03-20T02:03:17.926Z,53.51
2019-03-20T02:05:52.339Z,55.19
2019-03-20T02:12:35.319Z,53.59
2019-03-20T02:15:14.363Z,53.84
2019-03-20T02:17:51.154Z,53.98
2019-03-20T02:20:25.044Z,53.08
2019-03-20T02:22:58.776Z,52.77
2019-03-20T02:25:32.541Z,54.28
2019-03-20T02:28:06.265Z,54.25
2019-03-20T02:30:42.219Z,53.73
2019-03-20T02:33:17.397Z,54.26
2019-03-20T02:35:52.297Z,53.97
2019-03-20T02:38:27.476Z,53.89
2019-03-20T02:41:02.044Z,53.16
2019-03-20T02:43:35.723Z,53.15
2019-03-20T02:46:09.569Z,52.44
2019-03-20T02:48:43.368Z,52.08
2019-03-20T02:51:18.417Z,53.10
2019-03-20T02:53:52.248Z,54.09
2019-03-20T02:56:45.779Z,53.50
2019-03-20T02:59:22.090Z,53.89
2019-03-20T03:01:56.506Z,53.33
2019-03-20T03:04:30.369Z,52.47
2019-03-20T03:07:04.592Z,52.25
2019-03-20T03:09:38.719Z,52.73
2019-03-20T03:12:12.721Z,52.22
2019-03-20T03:14:46.465Z,53.24
2019-03-20T03:17:20.417Z,53.27
2019-03-20T03:19:53.922Z,53.08
2019-03-20T03:22:27.537Z,52.18
2019-03-20T03:25:01.365Z,53.79
2019-03-20T03:27:35.195Z,53.17
2019-03-20T03:30:19.605Z,51.88
2019-03-20T03:32:54.963Z,52.51
2019-03-20T03:35:28.682Z,52.58
2019-03-20T03:38:02.562Z,52.07
2019-03-20T03:40:37.682Z,50.93
2019-03-20T03:43:14.137Z,51.31
2019-03-20T03:46:24.575Z,51.82
2019-03-20T03:48:58.740Z,51.56
2019-03-20T03:51:33.934Z,51.81
2019-03-20T03:54:14.119Z,50.54
2019-03-20T03:56:49.465Z,50.22
2019-03-20T03:59:27.447Z,51.49
2019-03-20T04:02:04.024Z,50.93
2019-03-20T04:04:40.176Z,52.17
2019-03-20T04:07:14.811Z,51.80
2019-03-20T04:09:51.195Z,52.04
2019-03-20T04:12:25.576Z,51.45
2019-03-20T04:15:01.751Z,50.54
2019-03-20T04:17:38.032Z,51.25
2019-03-20T04:20:15.234Z,50.75
2019-03-20T04:22:50.172Z,50.52
2019-03-20T04:25:26.799Z,50.63
2019-03-20T04:28:03.206Z,50.27
2019-03-20T04:30:38.693Z,49.37
2019-03-20T04:33:13.773Z,49.29
2019-03-20T04:35:51.114Z,49.17
2019-03-20T04:38:25.925Z,48.52
2019-03-20T04:41:01.457Z,49.40
2019-03-20T04:43:35.638Z,48.98
2019-03-20T04:46:10.443Z,49.28
2019-03-20T04:48:45.181Z,48.91
2019-03-20T04:51:19.656Z,48.50
2019-03-20T04:53:53.658Z,48.85
2019-03-20T04:56:27.953Z,49.19
2019-03-20T04:59:01.933Z,49.03
2019-03-20T05:01:38.126Z,49.46
2019-03-20T05:04:12.270Z,48.98
2019-03-20T05:06:57.746Z,48.21
2019-03-20T05:09:21.696Z,48.51
2019-03-20T05:11:58.832Z,48.51
2019-03-20T05:14:33.157Z,48.51
2019-03-20T05:17:10.046Z,48.83
2019-03-20T05:19:44.253Z,47.93
2019-03-20T05:22:18.170Z,48.41
2019-03-20T05:24:57.062Z,48.62
2019-03-20T05:27:29.400Z,49.38
2019-03-20T05:30:03.656Z,48.88
2019-03-20T05:32:37.713Z,49.25
2019-03-20T05:35:14.130Z,49.05
2019-03-20T05:37:50.061Z,48.38
2019-03-20T05:40:26.857Z,48.35
2019-03-20T05:43:02.090Z,49.38
2019-03-20T05:45:36.097Z,48.81
2019-03-20T05:48:11.448Z,48.77
2019-03-20T05:50:45.445Z,48.27
2019-03-20T05:53:19.696Z,48.61
2019-03-20T05:55:53.750Z,48.36
2019-03-20T05:58:47.388Z,48.94
2019-03-20T06:01:21.469Z,48.38
2019-03-20T06:03:55.648Z,49.22
2019-03-20T06:06:29.968Z,49.95
2019-03-20T06:09:04.404Z,51.13
2019-03-20T06:11:38.030Z,50.88
2019-03-20T06:14:16.917Z,51.50
2019-03-20T06:16:52.621Z,51.77
2019-03-20T06:19:26.988Z,52.53
2019-03-20T06:22:02.936Z,54.03
2019-03-20T06:24:38.360Z,55.82
2019-03-20T06:27:14.922Z,55.99
2019-03-20T06:29:49.979Z,58.28
2019-03-20T06:32:31.501Z,60.09
2019-03-20T06:35:09.838Z,61.53
2019-03-20T06:37:44.020Z,64.72
2019-03-20T06:40:20.259Z,64.87
2019-03-20T06:42:55.438Z,65.91
2019-03-20T06:45:29.271Z,66.13
2019-03-20T06:48:07.958Z,67.21
2019-03-20T06:50:42.030Z,68.79
2019-03-20T06:53:16.050Z,71.81
2019-03-20T06:55:52.795Z,71.02
2019-03-20T06:58:27.929Z,70.55
2019-03-20T07:01:13.492Z,67.65
2019-03-20T07:04:04.671Z,70.09
2019-03-20T07:06:50.851Z,70.53
2019-03-20T07:09:30.222Z,68.76
2019-03-20T07:12:03.989Z,70.44
2019-03-20T07:14:38.204Z,70.16
2019-03-20T07:17:12.349Z,69.72
2019-03-20T07:19:47.709Z,71.40
2019-03-20T07:22:21.690Z,71.11
2019-03-20T07:24:55.603Z,71.79
2019-03-20T07:27:29.214Z,70.53
2019-03-20T07:30:04.456Z,69.77
2019-03-20T07:32:39.502Z,70.86
2019-03-20T07:35:13.608Z,70.34
2019-03-20T07:37:55.669Z,70.06
2019-03-20T07:40:22.969Z,70.16
2019-03-20T07:43:07.900Z,69.33
2019-03-20T07:45:32.682Z,70.68
2019-03-20T07:48:06.661Z,69.27
2019-03-20T07:50:42.460Z,70.31
2019-03-20T07:53:19.566Z,69.61
2019-03-20T07:55:53.933Z,70.06
2019-03-20T07:58:29.143Z,69.96
2019-03-20T08:01:03.243Z,70.70
2019-03-20T08:03:38.808Z,72.15
2019-03-20T08:06:13.011Z,70.46
2019-03-20T08:08:46.970Z,70.46
2019-03-20T08:11:20.846Z,71.61
2019-03-20T08:13:55.060Z,72.76
2019-03-20T08:16:30.796Z,71.31
2019-03-20T08:19:05.234Z,71.19
2019-03-20T08:21:39.661Z,69.61
2019-03-20T08:24:14.317Z,70.07
2019-03-20T08:26:48.578Z,70.43
2019-03-20T08:29:22.822Z,70.92
2019-03-20T08:31:56.970Z,70.49
2019-03-20T08:34:31.112Z,70.89
2019-03-20T08:37:05.080Z,71.19
2019-03-20T08:39:39.628Z,71.75
2019-03-20T08:42:14.698Z,71.26
2019-03-20T08:44:49.256Z,71.11
2019-03-20T08:47:23.907Z,70.70
2019-03-20T08:49:58.606Z,71.55
2019-03-20T08:52:34.239Z,70.49
2019-03-20T08:55:15.454Z,71.49
2019-03-20T08:57:51.562Z,70.91
2019-03-20T09:00:27.085Z,70.58
2019-03-20T09:03:04.710Z,70.12
2019-03-20T09:05:40.269Z,70.25
2019-03-20T09:08:28.545Z,70.04
2019-03-20T09:10:53.416Z,69.96
2019-03-20T09:13:28.304Z,70.02
2019-03-20T09:16:02.789Z,70.66
2019-03-20T09:18:37.895Z,72.30
2019-03-20T09:21:13.270Z,71.46
2019-03-20T09:23:47.668Z,71.86
2019-03-20T09:26:22.433Z,71.71
2019-03-20T09:28:59.023Z,71.68
2019-03-20T09:31:33.952Z,70.38
2019-03-20T09:34:12.320Z,71.73
2019-03-20T09:36:47.057Z,71.73
2019-03-20T09:39:22.007Z,71.37
2019-03-20T09:41:56.032Z,72.30
2019-03-20T09:44:30.822Z,72.08
2019-03-20T09:47:05.377Z,72.28
2019-03-20T09:49:47.125Z,71.30
2019-03-20T09:52:21.179Z,71.54
2019-03-20T09:54:55.498Z,71.38
2019-03-20T09:57:29.572Z,71.46
2019-03-20T10:00:04.000Z,71.32
2019-03-20T10:02:38.445Z,70.78
2019-03-20T10:05:14.236Z,70.65
2019-03-20T10:07:48.550Z,70.89
2019-03-20T10:10:26.341Z,72.09
2019-03-20T10:13:01.026Z,71.67
2019-03-20T10:15:37.069Z,71.24
2019-03-20T10:18:11.377Z,72.30
2019-03-20T10:20:46.084Z,73.57
2019-03-20T10:23:19.693Z,74.31
2019-03-20T10:25:53.870Z,75.00
2019-03-20T10:28:28.173Z,76.19
2019-03-20T10:31:04.073Z,75.85
2019-03-20T10:33:38.264Z,74.44
2019-03-20T10:36:17.692Z,74.31
2019-03-20T10:38:53.489Z,75.54
2019-03-20T10:41:27.517Z,74.76
2019-03-20T10:44:01.747Z,74.54
2019-03-20T10:46:55.071Z,75.13
2019-03-20T10:49:29.390Z,75.44
2019-03-20T10:52:03.650Z,76.78
2019-03-20T10:54:37.593Z,77.10
2019-03-20T10:57:30.888Z,76.71
2019-03-20T11:00:05.586Z,77.03
2019-03-20T11:02:39.923Z,76.81
2019-03-20T11:05:14.940Z,76.49
2019-03-20T11:07:49.043Z,76.12
2019-03-20T11:10:33.318Z,76.10
2019-03-20T11:13:07.575Z,76.61
2019-03-20T11:15:41.493Z,78.41
2019-03-20T11:18:15.698Z,79.15
2019-03-20T11:20:53.741Z,79.94
2019-03-20T11:23:27.536Z,80.25
2019-03-20T11:26:02.107Z,79.78
2019-03-20T11:28:36.432Z,79.63
2019-03-20T11:31:10.892Z,79.52
2019-03-20T11:33:47.344Z,79.32
2019-03-20T11:36:22.883Z,80.04
2019-03-20T11:38:57.370Z,80.33
2019-03-20T11:41:32.329Z,81.48
2019-03-20T11:44:07.952Z,81.64
2019-03-20T11:46:44.203Z,81.67
2019-03-20T11:49:18.934Z,81.81
2019-03-20T11:51:53.462Z,82.13
2019-03-20T11:54:27.777Z,82.45
2019-03-20T11:57:03.025Z,82.32
2019-03-20T11:59:40.208Z,83.70
2019-03-20T12:02:14.904Z,82.79
2019-03-20T12:04:49.395Z,82.15
2019-03-20T12:07:23.997Z,82.50
2019-03-20T12:09:59.155Z,83.25
2019-03-20T12:12:34.038Z,82.83
2019-03-20T12:15:10.668Z,82.89
2019-03-20T12:17:45.089Z,82.94
2019-03-20T12:20:25.682Z,83.71
2019-03-20T12:23:00.745Z,83.29
2019-03-20T12:25:39.444Z,84.15
2019-03-20T12:28:14.063Z,84.25
2019-03-20T12:30:49.315Z,83.65
2019-03-20T12:33:24.759Z,83.54
2019-03-20T12:35:59.640Z,83.42
2019-03-20T12:38:34.530Z,83.60
2019-03-20T12:41:10.955Z,84.10
2019-03-20T12:43:47.259Z,83.47
2019-03-20T12:46:22.759Z,83.88
2019-03-20T12:48:59.695Z,84.60
2019-03-20T12:51:34.030Z,85.54
2019-03-20T12:54:11.634Z,85.50
2019-03-20T12:56:46.629Z,85.72
2019-03-20T12:59:21.648Z,85.64
2019-03-20T13:01:57.201Z,84.40
2019-03-20T13:04:34.915Z,83.74
2019-03-20T13:07:09.953Z,85.27
2019-03-20T13:09:45.165Z,84.54
2019-03-20T13:12:20.142Z,83.58
2019-03-20T13:14:57.366Z,83.68
2019-03-20T13:17:34.390Z,83.76
2019-03-20T13:20:11.670Z,84.42
2019-03-20T13:22:47.299Z,84.60
2019-03-20T13:25:25.048Z,84.86
2019-03-20T13:28:02.674Z,85.96
2019-03-20T13:30:45.343Z,86.61
2019-03-20T13:33:25.799Z,86.04
2019-03-20T13:35:58.505Z,86.41
2019-03-20T13:38:35.251Z,86.65
2019-03-20T13:41:12.586Z,86.83
2019-03-20T13:43:53.318Z,86.68
2019-03-20T13:46:28.967Z,86.70
2019-03-20T13:49:05.654Z,86.64
2019-03-20T13:51:39.954Z,86.95
2019-03-20T13:54:15.727Z,87.05
2019-03-20T13:56:50.556Z,88.16
2019-03-20T13:59:24.958Z,88.06
2019-03-20T14:01:59.548Z,87.84
2019-03-20T14:04:36.217Z,87.12
2019-03-20T14:07:10.787Z,87.30
2019-03-20T14:09:45.522Z,87.10
2019-03-20T14:12:19.536Z,86.28
2019-03-20T14:14:53.848Z,86.50
2019-03-20T14:17:27.786Z,87.14
2019-03-20T14:20:05.752Z,88.06
2019-03-20T14:22:39.917Z,87.70
2019-03-20T14:25:17.899Z,88.24
2019-03-20T14:27:53.462Z,87.79
2019-03-20T14:30:36.586Z,86.47
2019-03-20T14:33:10.592Z,86.03
2019-03-20T14:35:44.903Z,85.82
2019-03-20T14:38:18.625Z,86.05
2019-03-20T14:41:21.157Z,85.97
2019-03-20T14:43:47.263Z,86.25
2019-03-20T14:46:22.717Z,86.30
2019-03-20T14:48:56.796Z,86.40
2019-03-20T14:51:31.954Z,86.58
2019-03-20T14:54:08.448Z,86.24
2019-03-20T14:56:40.951Z,86.30
2019-03-20T14:59:14.950Z,85.65
2019-03-20T15:01:48.658Z,85.32
2019-03-20T15:04:22.373Z,85.72
2019-03-20T15:06:58.207Z,86.82
2019-03-20T15:09:32.726Z,86.51
2019-03-20T15:12:06.568Z,86.26
2019-03-20T15:14:40.373Z,86.87
2019-03-20T15:17:32.684Z,86.78
2019-03-20T15:20:08.329Z,86.98
2019-03-20T15:22:42.042Z,86.14
2019-03-20T15:25:16.794Z,85.62
2019-03-20T15:27:50.791Z,85.19
2019-03-20T15:30:30.214Z,85.14
2019-03-20T15:33:06.007Z,85.06
2019-03-20T15:35:42.959Z,84.61
2019-03-20T15:38:17.270Z,85.07
2019-03-20T15:40:56.223Z,85.27
2019-03-20T15:43:25.884Z,85.60
2019-03-20T15:46:00.924Z,85.60
2019-03-20T15:48:34.538Z,85.64
2019-03-20T15:51:08.871Z,85.72
2019-03-20T15:53:43.088Z,86.27
2019-03-20T15:56:18.982Z,85.85
2019-03-20T15:58:54.286Z,86.26
2019-03-20T16:01:47.388Z,85.38
2019-03-20T16:04:22.442Z,85.96
2019-03-20T16:06:55.947Z,85.76
2019-03-20T16:09:30.260Z,85.55
2019-03-20T16:12:26.940Z,85.57
2019-03-20T16:14:59.881Z,85.67
2019-03-20T16:17:33.516Z,85.91
2019-03-20T16:20:09.430Z,85.63
2019-03-20T16:22:43.131Z,85.32
2019-03-20T16:25:25.993Z,85.31
2019-03-20T16:27:59.915Z,85.87
2019-03-20T16:30:34.577Z,85.95
2019-03-20T16:33:08.477Z,85.55
2019-03-20T16:35:42.463Z,86.11
2019-03-20T16:38:16.439Z,86.32
2019-03-20T16:40:53.075Z,85.41
2019-03-20T16:43:26.091Z,85.65
2019-03-20T16:45:59.861Z,85.54
2019-03-20T16:48:33.986Z,85.69
2019-03-20T16:51:07.558Z,85.92
2019-03-20T16:53:41.090Z,86.15
2019-03-20T16:56:14.714Z,86.36
2019-03-20T16:58:52.082Z,86.34
2019-03-20T17:01:25.322Z,86.09
2019-03-20T17:03:59.447Z,86.13
2019-03-20T17:06:33.330Z,85.58
2019-03-20T17:09:08.745Z,85.38
2019-03-20T17:11:42.287Z,85.68
2019-03-20T17:14:16.040Z,86.47
2019-03-20T17:16:49.746Z,86.42
2019-03-20T17:19:23.078Z,86.20
2019-03-20T17:21:56.321Z,85.89
2019-03-20T17:24:30.377Z,86.25
2019-03-20T17:27:04.047Z,86.19
2019-03-20T17:29:37.630Z,85.90
2019-03-20T17:32:11.249Z,85.98
2019-03-20T17:34:44.969Z,86.32
2019-03-20T17:37:18.473Z,86.09
2019-03-20T17:39:53.701Z,86.35
2019-03-20T17:42:27.555Z,85.90
2019-03-20T17:45:01.353Z,86.01
2019-03-20T17:47:34.988Z,85.99
2019-03-20T17:50:11.556Z,86.02
2019-03-20T17:52:45.581Z,86.31
2019-03-20T17:55:19.118Z,86.39
2019-03-20T17:57:52.650Z,86.04
2019-03-20T18:00:33.731Z,86.30
2019-03-20T18:03:07.661Z,86.07
2019-03-20T18:05:42.934Z,85.70
2019-03-20T18:08:17.105Z,85.72
2019-03-20T18:10:51.130Z,86.40
2019-03-20T18:13:24.456Z,86.98
2019-03-20T18:15:58.548Z,87.02
2019-03-20T18:18:33.168Z,86.67
2019-03-20T18:21:06.840Z,86.34
2019-03-20T18:23:40.562Z,86.59
2019-03-20T18:26:17.339Z,86.31
2019-03-20T18:28:54.135Z,86.05
2019-03-20T18:31:28.913Z,85.61
2019-03-20T18:34:03.895Z,85.56
2019-03-20T18:36:37.760Z,85.51
2019-03-20T18:39:11.587Z,85.64
2019-03-20T18:41:45.208Z,85.47
2019-03-20T18:44:18.768Z,86.16
2019-03-20T18:46:52.459Z,86.41
2019-03-20T18:49:26.174Z,86.35
2019-03-20T18:51:59.668Z,86.25
2019-03-20T18:54:33.551Z,86.19
2019-03-20T18:57:07.440Z,86.16
2019-03-20T18:59:41.178Z,85.71
2019-03-20T19:02:15.019Z,85.83
2019-03-20T19:04:48.511Z,85.46
2019-03-20T19:07:22.220Z,84.71
2019-03-20T19:09:57.662Z,84.51
2019-03-20T19:12:34.992Z,84.45
2019-03-20T19:15:15.736Z,84.17
2019-03-20T19:17:49.269Z,85.51
2019-03-20T19:20:24.645Z,85.26
2019-03-20T19:22:58.450Z,85.63
2019-03-20T19:25:32.038Z,85.48
2019-03-20T19:28:05.860Z,85.27
2019-03-20T19:30:39.879Z,85.35
2019-03-20T19:33:13.638Z,85.68
2019-03-20T19:35:47.459Z,84.70
2019-03-20T19:38:21.267Z,84.83
2019-03-20T19:40:54.883Z,84.97
2019-03-20T19:43:28.367Z,84.64
2019-03-20T19:46:02.290Z,84.71
2019-03-20T19:48:36.077Z,84.02
2019-03-20T19:51:09.830Z,83.95
2019-03-20T19:53:43.385Z,85.32
2019-03-20T19:56:16.963Z,85.05
2019-03-20T19:58:50.643Z,84.47
2019-03-20T20:01:24.211Z,84.61
2019-03-20T20:03:57.779Z,84.64
2019-03-20T20:06:31.524Z,84.20
2019-03-20T20:09:06.123Z,84.52
2019-03-20T20:11:40.751Z,84.16
2019-03-20T20:14:14.695Z,83.80
2019-03-20T20:16:49.812Z,83.95
2019-03-20T20:19:23.960Z,83.79
2019-03-20T20:21:57.698Z,84.19
2019-03-20T20:24:31.284Z,83.78
2019-03-20T20:27:05.212Z,84.40
2019-03-20T20:29:38.785Z,83.89
2019-03-20T20:32:12.336Z,83.93
2019-03-20T20:34:45.963Z,84.04
2019-03-20T20:37:19.452Z,83.26
2019-03-20T20:39:53.255Z,83.07
2019-03-20T20:42:26.876Z,83.18
2019-03-20T20:45:00.370Z,82.78
2019-03-20T20:47:34.054Z,82.47
2019-03-20T20:50:09.671Z,82.66
2019-03-20T20:52:43.316Z,82.06
2019-03-20T20:55:24.562Z,82.17
2019-03-20T20:57:58.271Z,82.29
2019-03-20T21:00:35.117Z,82.70
2019-03-20T21:03:08.616Z,82.60
2019-03-20T21:05:42.278Z,82.35
2019-03-20T21:08:15.892Z,82.92
2019-03-20T21:10:49.573Z,83.02
2019-03-20T21:13:25.174Z,83.93
2019-03-20T21:15:59.430Z,83.73
2019-03-20T21:18:44.806Z,82.61
2019-03-20T21:21:18.337Z,82.30
2019-03-20T21:24:25.999Z,82.51
2019-03-20T21:27:29.589Z,82.40
2019-03-20T21:30:33.823Z,83.09
2019-03-20T21:33:10.211Z,83.16
2019-03-20T21:36:19.868Z,83.31
2019-03-20T21:38:53.830Z,83.18
2019-03-20T21:41:32.971Z,83.68
2019-03-20T21:44:24.343Z,83.07
2019-03-20T21:47:24.785Z,82.88
2019-03-20T21:49:58.599Z,83.53
2019-03-20T21:52:32.119Z,83.37
2019-03-20T21:55:23.234Z,83.93
2019-03-20T21:58:10.788Z,83.17
2019-03-20T22:01:36.773Z,83.26
2019-03-20T22:04:10.183Z,83.54
2019-03-20T22:07:11.460Z,83.62
2019-03-20T22:09:57.138Z,83.43
2019-03-20T22:13:24.398Z,82.77
2019-03-20T22:16:23.361Z,83.58
2019-03-20T22:19:25.576Z,82.95
2019-03-20T22:22:19.968Z,82.65
2019-03-20T22:25:12.024Z,83.21
2019-03-20T22:28:23.795Z,82.66
2019-03-20T22:30:58.186Z,82.44
2019-03-20T22:34:21.570Z,83.04
2019-03-20T22:36:56.311Z,83.38
2019-03-20T22:40:00.340Z,82.83
2019-03-20T22:42:48.237Z,82.75
2019-03-20T22:45:57.911Z,82.73
2019-03-20T22:48:42.758Z,82.86
2019-03-20T22:51:30.496Z,82.76
2019-03-20T22:54:30.946Z,83.27
2019-03-20T22:57:26.698Z,82.00
2019-03-20T23:00:00.438Z,83.25
2019-03-20T23:02:43.087Z,82.82
2019-03-20T23:05:16.983Z,83.53
2019-03-20T23:07:55.901Z,83.25
2019-03-20T23:10:30.513Z,83.53
2019-03-20T23:13:06.552Z,83.45
2019-03-20T23:15:40.460Z,83.05
2019-03-20T23:18:16.445Z,83.18
2019-03-20T23:20:50.163Z,82.75
2019-03-20T23:23:25.709Z,83.03
2019-03-20T23:25:59.686Z,82.99
2019-03-20T23:28:33.707Z,83.51
2019-03-20T23:31:08.908Z,82.96
2019-03-20T23:33:42.802Z,83.21
2019-03-20T23:36:16.695Z,82.94
2019-03-20T23:38:50.759Z,83.31
2019-03-20T23:41:24.793Z,84.10
2019-03-20T23:43:58.596Z,83.27
2019-03-20T23:46:32.783Z,83.81
2019-03-20T23:49:18.457Z,83.13
2019-03-20T23:51:52.305Z,83.46
2019-03-20T23:54:29.117Z,83.73
2019-03-20T23:57:02.974Z,83.39
2019-03-20T23:59:37.399Z,83.46
